Acworth, Georgia
Current Conditions -  °F | °C
As of 5:47 PM on Thursday 20 Nov 2014 (Local Time) from KRYY Reporting Station
Clear Clear  
Wind Chill: 11°   Ceiling: Unl
Heat Index: 11°   Visibility: 10mi
Dew Point: -2°   Wind: 6mph
Humidity: 41%   Direction: 280°W
Pressure: 30.2"   Gusts: NA
Location:  34.06°N, 84.68°W
Report Text: KRYY 202247Z 28005KT 10SM SKC 11/M02 A3020
Loading
Personal Weather Stations






























Interactive Weather Map New forecast layout! Learn more

10-Day Weather Forecast

Advertisements
Track Severe Weather on mobile